EK337 RPLL-OMDB
Flight info
| Callsign | EK337 |
|---|---|
| Flight time | N/A |
| Altitude | 34000 |
| Route | RPLL/06 N0497F340 SIRC2R SIRCA L628 ARESI/K0922F340 L628 DAMEL/K0913F360 L628 PCA G474 ANINA/N0492F360 G474 VEMKO M633 TANEK L301 DOGEM/N0489F380 L301 RAGMA N571 VUSET A454 PASOV B540 KUPMA/N0451F240 B540 MIVEK P574 IMPED IMPE3C OMDB/30L |
| Aircraft | B77W/H-SIL/0000 |
Departure
| Time | 2026-05-06 08:53 |
|---|---|
| Airport | Ninoy Aquino International Airport (RPLL) |
Arrival
| Time | N/A |
|---|---|
| Airport | Dubai International Airport (OMDB) |
| Time | Latitude | Longitude | Altitude | Speed | Heading |
|---|---|---|---|---|---|
| 2026-05-06 08:23 | 14.52088 | 121.01083 | 88 ft | 0 kts | 46° |
| 2026-05-06 08:37 | 14.52081 | 121.01075 | 88 ft | 2 kts | 45° |
| 2026-05-06 08:37 | 14.52070 | 121.01063 | 88 ft | 2 kts | 44° |
| 2026-05-06 08:37 | 14.52060 | 121.01052 | 88 ft | 2 kts | 44° |
| 2026-05-06 08:37 | 14.52049 | 121.01041 | 88 ft | 2 kts | 44° |
| 2026-05-06 08:38 | 14.52039 | 121.01030 | 88 ft | 2 kts | 44° |
| 2026-05-06 08:38 | 14.52028 | 121.01019 | 88 ft | 2 kts | 64° |
| 2026-05-06 08:38 | 14.52027 | 121.01004 | 88 ft | 2 kts | 104° |
| 2026-05-06 08:38 | 14.52032 | 121.00992 | 88 ft | 0 kts | 134° |
| 2026-05-06 08:39 | 14.52034 | 121.00990 | 88 ft | 0 kts | 135° |
| 2026-05-06 08:41 | 14.52024 | 121.01000 | 87 ft | 5 kts | 133° |
| 2026-05-06 08:42 | 14.52000 | 121.01027 | 88 ft | 4 kts | 133° |
| 2026-05-06 08:42 | 14.51980 | 121.01047 | 87 ft | 4 kts | 138° |
| 2026-05-06 08:42 | 14.51926 | 121.01052 | 88 ft | 12 kts | 185° |
| 2026-05-06 08:42 | 14.51893 | 121.01051 | 87 ft | 15 kts | 171° |
| 2026-05-06 08:43 | 14.51720 | 121.01215 | 88 ft | 26 kts | 134° |
| 2026-05-06 08:43 | 14.51589 | 121.01347 | 88 ft | 24 kts | 135° |
| 2026-05-06 08:43 | 14.51473 | 121.01466 | 87 ft | 21 kts | 135° |
| 2026-05-06 08:43 | 14.51401 | 121.01540 | 87 ft | 19 kts | 135° |
| 2026-05-06 08:44 | 14.51323 | 121.01620 | 87 ft | 17 kts | 135° |
| 2026-05-06 08:44 | 14.51245 | 121.01701 | 87 ft | 14 kts | 134° |
| 2026-05-06 08:45 | 14.51179 | 121.01770 | 87 ft | 12 kts | 135° |
| 2026-05-06 08:45 | 14.51122 | 121.01829 | 87 ft | 10 kts | 135° |
| 2026-05-06 08:45 | 14.51074 | 121.01879 | 87 ft | 8 kts | 134° |
| 2026-05-06 08:45 | 14.51033 | 121.01914 | 87 ft | 6 kts | 167° |
| 2026-05-06 08:46 | 14.50993 | 121.01899 | 87 ft | 8 kts | 232° |
| 2026-05-06 08:46 | 14.50950 | 121.01823 | 87 ft | 16 kts | 240° |
| 2026-05-06 08:46 | 14.50877 | 121.01691 | 87 ft | 22 kts | 241° |
| 2026-05-06 08:46 | 14.50803 | 121.01558 | 87 ft | 20 kts | 239° |
| 2026-05-06 08:47 | 14.50736 | 121.01444 | 87 ft | 17 kts | 240° |
| 2026-05-06 08:47 | 14.50682 | 121.01342 | 87 ft | 15 kts | 240° |
| 2026-05-06 08:47 | 14.50632 | 121.01249 | 87 ft | 13 kts | 241° |
| 2026-05-06 08:47 | 14.50588 | 121.01169 | 87 ft | 11 kts | 240° |
| 2026-05-06 08:48 | 14.50550 | 121.01099 | 87 ft | 10 kts | 240° |
| 2026-05-06 08:48 | 14.50516 | 121.01041 | 87 ft | 9 kts | 239° |
| 2026-05-06 08:48 | 14.50473 | 121.00963 | 87 ft | 21 kts | 241° |
| 2026-05-06 08:48 | 14.50386 | 121.00806 | 87 ft | 24 kts | 240° |
| 2026-05-06 08:49 | 14.50307 | 121.00666 | 87 ft | 21 kts | 240° |
| 2026-05-06 08:49 | 14.50240 | 121.00543 | 87 ft | 18 kts | 241° |
| 2026-05-06 08:49 | 14.50179 | 121.00435 | 87 ft | 16 kts | 238° |
| 2026-05-06 08:49 | 14.50128 | 121.00342 | 87 ft | 13 kts | 241° |
| 2026-05-06 08:50 | 14.50084 | 121.00262 | 87 ft | 11 kts | 240° |
| 2026-05-06 08:50 | 14.50046 | 121.00192 | 87 ft | 11 kts | 240° |
| 2026-05-06 08:50 | 14.50001 | 121.00112 | 87 ft | 14 kts | 240° |
| 2026-05-06 08:50 | 14.49946 | 121.00012 | 87 ft | 15 kts | 240° |
| 2026-05-06 08:51 | 14.49871 | 120.99972 | 88 ft | 11 kts | 162° |
| 2026-05-06 08:51 | 14.49817 | 120.99999 | 88 ft | 5 kts | 141° |
| 2026-05-06 08:51 | 14.49803 | 121.00022 | 88 ft | 2 kts | 89° |
| 2026-05-06 08:51 | 14.49807 | 121.00045 | 88 ft | 4 kts | 77° |
| 2026-05-06 08:52 | 14.49815 | 121.00069 | 88 ft | 3 kts | 65° |
| 2026-05-06 08:52 | 14.49873 | 121.00178 | 88 ft | 48 kts | 60° |
| 2026-05-06 08:52 | 14.50178 | 121.00718 | 87 ft | 124 kts | 62° |
| 2026-05-06 08:52 | 14.50725 | 121.01708 | 120 ft | 187 kts | 64° |
| 2026-05-06 08:53 | 14.51385 | 121.02912 | 812 ft | 195 kts | 62° |
| 2026-05-06 08:53 | 14.52046 | 121.04089 | 1787 ft | 188 kts | 62° |
| 2026-05-06 08:53 | 14.52720 | 121.05302 | 2106 ft | 206 kts | 62° |
| 2026-05-06 08:53 | 14.53467 | 121.06650 | 2397 ft | 227 kts | 61° |
| 2026-05-06 08:54 | 14.54279 | 121.08113 | 2797 ft | 242 kts | 61° |
| 2026-05-06 08:54 | 14.55015 | 121.09438 | 3339 ft | 248 kts | 61° |
| 2026-05-06 08:54 | 14.55021 | 121.09448 | 3342 ft | 248 kts | 61° |
| 2026-05-06 08:54 | 14.55024 | 121.09453 | 3344 ft | 248 kts | 61° |
| 2026-05-06 08:55 | 14.55911 | 121.11053 | 3879 ft | 262 kts | 60° |
| 2026-05-06 08:55 | 14.57083 | 121.12497 | 4586 ft | 267 kts | 37° |
| 2026-05-06 08:55 | 14.58774 | 121.13295 | 5326 ft | 272 kts | 11° |
| 2026-05-06 08:55 | 14.60656 | 121.13457 | 6088 ft | 276 kts | 2° |
| 2026-05-06 08:56 | 14.62577 | 121.13469 | 6854 ft | 278 kts | 1° |
| 2026-05-06 08:56 | 14.64552 | 121.13470 | 7575 ft | 282 kts | 1° |
| 2026-05-06 08:56 | 14.66523 | 121.13341 | 8288 ft | 286 kts | 346° |
| 2026-05-06 08:56 | 14.68344 | 121.12439 | 8936 ft | 293 kts | 320° |
| 2026-05-06 08:57 | 14.69616 | 121.10800 | 9574 ft | 299 kts | 294° |
| 2026-05-06 08:57 | 14.70093 | 121.08699 | 10214 ft | 303 kts | 274° |
| 2026-05-06 08:57 | 14.70111 | 121.06480 | 10638 ft | 318 kts | 269° |
| 2026-05-06 08:57 | 14.70062 | 121.04122 | 11033 ft | 334 kts | 270° |